Time;durP1;ratioP1;P1;durP2;ratioP2;P2;SDS_P1;SDS_P2;PMS_P1;PMS_P2;Temp;Humidity;BMP_temperature;BMP_pressure;BME280_temperature;BME280_humidity;BME280_pressure;Samples;Min_cycle;Max_cycle;Signal;HPM_P1;HPM_P2
2023/06/15 00:00:06;;;;;;;5.63;1.98;;;;;;;17.86;43.84;96820.59;6292060;28;20048;-63
2023/06/15 00:03:08;;;;;;;2.53;2.33;;;;;;;17.88;44.41;96818.63;6291044;28;20550;-63
2023/06/15 00:06:11;;;;;;;3.20;1.80;;;;;;;17.89;45.07;96820.31;6290558;28;20031;-62
2023/06/15 00:09:18;;;;;;;4.10;2.40;;;;;;;17.92;44.97;96824.50;6293701;28;20064;-62
2023/06/15 00:12:19;;;;;;;6.18;2.58;;;;;;;17.92;44.97;96825.34;6293781;28;20496;-64
2023/06/15 00:15:27;;;;;;;3.83;2.05;;;;;;;17.96;45.07;96836.53;6289697;28;20048;-62
2023/06/15 00:18:37;;;;;;;5.05;2.50;;;;;;;17.96;44.49;96831.19;6290343;28;20057;-63
2023/06/15 00:21:41;;;;;;;5.90;2.90;;;;;;;18.03;44.60;96836.78;6290702;28;20484;-63
2023/06/15 00:24:42;;;;;;;3.83;1.77;;;;;;;18.12;44.34;96833.25;6289498;28;20190;-63
2023/06/15 00:27:44;;;;;;;3.13;2.05;;;;;;;18.14;43.96;96833.91;6293433;28;20518;-62
2023/06/15 00:30:50;;;;;;;2.90;2.25;;;;;;;18.15;43.70;96835.63;6290434;28;20040;-63
2023/06/15 00:33:54;;;;;;;2.92;2.05;;;;;;;18.16;43.94;96837.28;6290860;28;20392;-63
2023/06/15 00:36:55;;;;;;;3.05;1.90;;;;;;;18.16;43.45;96843.44;6292142;28;20053;-63
2023/06/15 00:40:00;;;;;;;3.10;2.08;;;;;;;18.25;43.54;96830.22;6289959;28;20044;-63
2023/06/15 00:43:04;;;;;;;3.97;2.15;;;;;;;18.18;43.66;96827.31;6292356;28;20416;-63
2023/06/15 00:46:09;;;;;;;5.13;2.10;;;;;;;18.21;43.60;96835.00;6292661;28;20052;-62
2023/06/15 00:49:11;;;;;;;4.22;2.10;;;;;;;18.23;43.61;96826.88;6292773;28;20036;-63
2023/06/15 00:52:16;;;;;;;2.22;1.98;;;;;;;18.25;43.15;96833.72;6292261;28;20044;-63
2023/06/15 00:55:20;;;;;;;5.32;2.40;;;;;;;18.23;43.34;96833.06;6290033;28;20068;-63
2023/06/15 00:58:24;;;;;;;5.30;2.28;;;;;;;18.29;43.54;96832.47;6290671;28;20075;-63
2023/06/15 01:01:28;;;;;;;2.70;2.08;;;;;;;18.33;43.42;96828.50;6290469;28;20055;-62
2023/06/15 01:04:32;;;;;;;4.15;2.00;;;;;;;18.39;43.42;96819.91;6291318;28;20060;-62
2023/06/15 01:07:36;;;;;;;2.45;1.80;;;;;;;18.43;43.28;96816.94;6292002;28;20036;-62
2023/06/15 01:10:44;;;;;;;2.92;1.95;;;;;;;18.42;43.36;96809.94;6291597;28;20040;-62
2023/06/15 01:13:49;;;;;;;2.88;1.95;;;;;;;18.47;43.26;96818.34;6289035;28;20041;-64
2023/06/15 01:16:59;;;;;;;3.20;1.85;;;;;;;18.52;43.28;96827.56;6291575;28;20044;-69
2023/06/15 01:20:05;;;;;;;5.97;2.40;;;;;;;18.53;43.01;96826.56;6290429;28;20037;-63
2023/06/15 01:23:21;;;;;;;6.28;3.28;;;;;;;18.61;43.24;96821.31;6291500;28;20127;-63
2023/06/15 01:26:28;;;;;;;2.97;1.95;;;;;;;18.67;42.94;96819.88;6292005;28;20435;-62
2023/06/15 01:29:36;;;;;;;2.92;2.42;;;;;;;18.78;42.84;96805.53;6292558;28;20428;-63
2023/06/15 01:32:41;;;;;;;3.38;1.98;;;;;;;18.73;42.83;96813.94;6290182;28;20045;-64
2023/06/15 01:35:45;;;;;;;5.32;2.42;;;;;;;18.78;42.63;96814.34;6291395;28;20040;-63
2023/06/15 01:38:52;;;;;;;4.22;1.88;;;;;;;18.88;42.31;96813.44;6291363;28;20048;-64
2023/06/15 01:41:59;;;;;;;3.58;2.00;;;;;;;18.95;42.12;96806.50;6292233;28;20128;-63
2023/06/15 01:45:03;;;;;;;3.65;2.35;;;;;;;19.01;41.63;96806.72;6291595;28;20052;-62
2023/06/15 01:48:08;;;;;;;4.28;2.20;;;;;;;19.16;42.05;96804.34;6290481;28;20036;-62
2023/06/15 01:51:12;;;;;;;4.72;2.72;;;;;;;19.33;41.93;96804.47;6290423;28;20063;-64
2023/06/15 01:54:18;;;;;;;5.97;2.97;;;;;;;19.53;41.42;96816.59;6252144;28;20045;-63
2023/06/15 01:57:22;;;;;;;3.25;1.92;;;;;;;19.71;40.23;96804.09;6288652;28;20055;-63
2023/06/15 02:00:28;;;;;;;8.10;4.15;;;;;;;19.83;40.96;96801.97;6273484;28;20040;-64
2023/06/15 02:03:31;;;;;;;10.80;4.47;;;;;;;19.99;40.99;96806.56;6282244;28;20467;-63
2023/06/15 02:06:36;;;;;;;7.05;3.50;;;;;;;20.18;41.19;96806.31;6294625;28;20075;-63
2023/06/15 02:09:43;;;;;;;4.70;3.00;;;;;;;20.26;41.62;96815.34;6292588;28;20415;-63
2023/06/15 02:12:52;;;;;;;5.00;3.20;;;;;;;20.36;41.70;96802.72;6291898;28;20431;-63
2023/06/15 02:15:55;;;;;;;4.65;3.20;;;;;;;20.48;40.99;96811.25;6290986;28;20029;-63
2023/06/15 02:19:03;;;;;;;7.72;2.78;;;;;;;20.42;41.28;96802.06;6289993;28;20056;-63
2023/06/15 02:22:09;;;;;;;10.90;2.60;;;;;;;20.40;41.05;96804.03;6292907;28;20040;-63
2023/06/15 02:25:11;;;;;;;6.80;2.95;;;;;;;20.35;41.13;96814.38;6291938;28;20511;-63
2023/06/15 02:28:15;;;;;;;5.63;2.40;;;;;;;20.37;41.50;96820.41;6295942;28;20043;-62
2023/06/15 02:31:22;;;;;;;5.70;2.60;;;;;;;20.54;40.94;96824.81;6294218;28;20455;-62
2023/06/15 02:34:25;;;;;;;3.30;2.40;;;;;;;20.71;40.02;96832.91;6294818;28;20036;-63
2023/06/15 02:37:27;;;;;;;3.50;1.85;;;;;;;20.88;39.74;96817.72;6294889;28;20584;-63
2023/06/15 02:40:28;;;;;;;5.88;2.60;;;;;;;21.08;38.96;96825.25;6295226;28;20578;-64
2023/06/15 02:43:32;;;;;;;4.07;1.90;;;;;;;21.26;38.05;96833.13;6293605;28;20045;-63
2023/06/15 02:46:35;;;;;;;4.35;2.05;;;;;;;21.28;37.69;96836.47;6294228;28;20048;-63
2023/06/15 02:49:45;;;;;;;3.95;2.40;;;;;;;21.30;38.12;96833.63;6293848;28;20179;-64
2023/06/15 02:52:47;;;;;;;3.38;2.03;;;;;;;21.24;38.52;96845.00;6294730;28;20043;-62
2023/06/15 02:55:53;;;;;;;3.38;2.38;;;;;;;21.08;39.09;96846.66;6294833;28;20040;-63
2023/06/15 02:58:57;;;;;;;5.05;2.38;;;;;;;20.80;40.38;96847.94;6277999;28;20052;-63
2023/06/15 03:02:04;;;;;;;2.92;2.35;;;;;;;20.65;40.75;96849.59;6293946;28;20117;-64
2023/06/15 03:05:07;;;;;;;5.20;2.50;;;;;;;20.65;41.43;96844.25;6292967;28;20048;-64
2023/06/15 03:08:12;;;;;;;3.40;2.22;;;;;;;20.60;41.51;96842.88;6293624;28;20044;-63
2023/06/15 03:11:17;;;;;;;6.13;3.25;;;;;;;20.59;41.64;96846.56;6294985;28;20048;-63
2023/06/15 03:14:19;;;;;;;6.93;2.88;;;;;;;20.57;42.26;96864.59;6293169;28;20036;-64
2023/06/15 03:17:26;;;;;;;8.95;2.90;;;;;;;20.48;42.54;96864.72;6292487;28;20040;-62
2023/06/15 03:20:33;;;;;;;3.72;2.75;;;;;;;20.35;43.39;96855.31;6292555;28;20041;-65
2023/06/15 03:23:34;;;;;;;4.57;2.53;;;;;;;20.29;43.29;96852.44;6292752;28;20514;-64
2023/06/15 03:26:47;;;;;;;4.45;2.47;;;;;;;20.39;43.47;96866.53;6293597;28;20040;-62
2023/06/15 03:29:52;;;;;;;4.78;2.97;;;;;;;20.47;43.34;96866.56;6292513;28;20044;-64
2023/06/15 03:32:53;;;;;;;7.20;2.70;;;;;;;20.37;43.21;96852.47;6291254;28;20401;-63
2023/06/15 03:35:57;;;;;;;7.32;2.70;;;;;;;20.27;43.70;96863.31;6292608;28;20040;-63
2023/06/15 03:38:58;;;;;;;5.45;2.67;;;;;;;20.09;44.13;96858.03;6308019;28;20036;-63
2023/06/15 03:42:02;;;;;;;7.18;2.95;;;;;;;19.91;44.65;96857.28;6319837;28;20048;-63
2023/06/15 03:45:06;;;;;;;6.00;2.88;;;;;;;19.89;44.56;96876.09;6295465;28;20048;-63
2023/06/15 03:48:09;;;;;;;4.95;2.78;;;;;;;19.84;44.76;96874.91;6290655;28;20033;-63
2023/06/15 03:51:13;;;;;;;;;;;;;;;19.84;44.24;96872.22;6287315;28;20032;-63
2023/06/15 03:54:17;;;;;;;3.50;2.33;;;;;;;19.80;45.38;96871.72;6291417;28;19920;-64
2023/06/15 03:57:19;;;;;;;4.60;2.20;;;;;;;19.85;44.85;96868.59;6292651;28;20036;-64
2023/06/15 04:00:20;;;;;;;4.43;2.15;;;;;;;20.13;44.18;96878.09;6289452;28;20123;-64
2023/06/15 04:03:26;;;;;;;5.25;2.28;;;;;;;20.40;43.04;96878.88;6290126;28;20470;-64
2023/06/15 04:06:32;;;;;;;5.70;2.58;;;;;;;20.47;43.01;96885.25;6284031;28;20036;-63
2023/06/15 04:09:33;;;;;;;7.95;2.80;;;;;;;20.55;43.30;96888.00;6290888;28;20139;-63
2023/06/15 04:12:38;;;;;;;6.03;3.00;;;;;;;20.46;42.95;96878.22;6293583;28;20373;-63
2023/06/15 04:15:39;;;;;;;7.03;2.30;;;;;;;20.18;43.05;96880.28;6290122;28;20602;-62
2023/06/15 04:18:41;;;;;;;2.80;2.00;;;;;;;20.01;43.87;96890.03;6292555;28;20071;-63
2023/06/15 04:21:43;;;;;;;4.57;2.60;;;;;;;19.86;45.48;96886.28;6291278;28;20419;-62
2023/06/15 04:24:44;;;;;;;3.78;1.92;;;;;;;19.50;46.94;96887.16;6290828;28;20041;-65
2023/06/15 04:27:46;;;;;;;5.88;2.38;;;;;;;19.25;49.53;96902.13;6292406;28;20048;-63
2023/06/15 04:31:05;;;;;;;4.35;2.65;;;;;;;19.28;51.27;96901.00;6290349;28;20764;-64
2023/06/15 04:34:11;;;;;;;6.35;2.28;;;;;;;19.07;51.06;96890.59;6292847;28;20121;-63
2023/06/15 04:37:16;;;;;;;4.07;2.28;;;;;;;19.02;50.77;96895.53;6290979;28;20423;-63
2023/06/15 04:40:20;;;;;;;2.67;2.13;;;;;;;19.06;50.79;96888.94;6290244;28;20117;-63
2023/06/15 04:43:24;;;;;;;5.60;2.42;;;;;;;19.05;50.40;96872.09;6278863;28;20037;-64
2023/06/15 04:46:32;;;;;;;3.55;2.45;;;;;;;18.96;50.56;96866.84;6291438;28;20040;-63
2023/06/15 04:49:35;;;;;;;3.65;2.15;;;;;;;18.79;51.71;96861.31;6291096;28;20131;-63
2023/06/15 04:52:36;;;;;;;4.40;2.53;;;;;;;18.77;52.38;96863.31;6291866;28;20048;-64
2023/06/15 04:55:41;;;;;;;2.90;2.17;;;;;;;18.95;51.23;96862.50;6274130;28;20044;-63
2023/06/15 04:58:42;;;;;;;3.92;2.38;;;;;;;19.00;50.86;96857.56;6290460;28;20063;-64
2023/06/15 05:01:46;;;;;;;5.53;3.55;;;;;;;19.10;51.08;96860.13;6286678;28;20059;-63
2023/06/15 05:04:48;;;;;;;6.88;4.15;;;;;;;19.20;50.67;96858.22;6292163;28;20032;-64
2023/06/15 05:07:50;;;;;;;7.13;4.38;;;;;;;19.24;50.57;96844.41;6292092;28;20135;-63
2023/06/15 05:10:55;;;;;;;6.93;4.15;;;;;;;19.36;50.60;96852.19;6275624;28;20044;-64
2023/06/15 05:13:58;;;;;;;6.15;3.85;;;;;;;19.31;51.97;96858.00;6292295;28;20049;-64
2023/06/15 05:17:03;;;;;;;5.32;3.55;;;;;;;19.33;51.45;96857.81;6289021;28;20032;-65
2023/06/15 05:20:05;;;;;;;3.75;2.67;;;;;;;19.29;51.54;96851.97;6269708;28;20587;-63
2023/06/15 05:23:09;;;;;;;4.75;2.90;;;;;;;19.05;52.34;96861.44;6290512;28;20040;-63
2023/06/15 05:26:13;;;;;;;5.15;3.50;;;;;;;19.00;52.86;96857.56;6292259;28;20139;-63
2023/06/15 05:29:16;;;;;;;4.35;2.72;;;;;;;18.98;54.55;96864.84;6292098;28;20040;-62
2023/06/15 05:32:18;;;;;;;;;;;;;;;18.94;52.88;96863.47;6292583;28;20036;-62
2023/06/15 05:35:19;;;;;;;4.00;2.88;;;;;;;18.82;55.63;96870.84;6296143;28;20007;-63
2023/06/15 05:38:22;;;;;;;4.78;2.55;;;;;;;18.73;55.65;96845.91;6295085;28;20087;-62
2023/06/15 05:41:26;;;;;;;4.03;3.03;;;;;;;18.66;55.78;96860.84;6272098;28;20033;-62
2023/06/15 05:44:27;;;;;;;3.85;2.50;;;;;;;18.67;55.56;96854.50;6275281;28;20190;-62
2023/06/15 05:47:28;;;;;;;5.75;3.05;;;;;;;18.57;56.15;96861.72;6296905;28;20033;-63
2023/06/15 05:50:31;;;;;;;5.90;3.05;;;;;;;18.42;58.51;96863.22;6297623;28;20056;-63
2023/06/15 05:53:32;;;;;;;5.80;3.47;;;;;;;18.30;58.76;96868.75;6296683;28;20174;-62
2023/06/15 05:56:36;;;;;;;5.03;3.05;;;;;;;18.29;59.28;96866.25;6296571;28;20052;-63
2023/06/15 05:59:38;;;;;;;4.63;3.10;;;;;;;18.11;59.26;96858.19;6296301;28;20072;-65
2023/06/15 06:02:45;;;;;;;3.25;2.80;;;;;;;17.82;60.44;96858.28;6291858;28;20041;-62
2023/06/15 06:05:46;;;;;;;6.75;3.13;;;;;;;17.70;61.25;96849.63;6295073;28;20170;-62
2023/06/15 06:08:48;;;;;;;6.47;2.70;;;;;;;17.62;62.17;96846.84;6296026;28;20040;-63
2023/06/15 06:11:52;;;;;;;6.53;3.03;;;;;;;17.14;63.76;96843.25;6296017;28;20044;-63
2023/06/15 06:14:55;;;;;;;3.35;2.70;;;;;;;17.05;64.08;96852.09;6295985;28;20044;-63
2023/06/15 06:17:56;;;;;;;4.13;3.15;;;;;;;16.86;65.35;96842.28;6295516;28;20032;-62
2023/06/15 06:21:00;;;;;;;3.50;3.10;;;;;;;17.06;64.44;96838.63;6295132;28;20032;-63
2023/06/15 06:24:04;;;;;;;5.28;2.92;;;;;;;17.17;63.84;96855.44;6295839;28;20049;-63
2023/06/15 06:27:08;;;;;;;3.17;2.88;;;;;;;17.10;64.30;96849.00;6295604;28;20066;-63
2023/06/15 06:30:13;;;;;;;3.25;2.90;;;;;;;16.88;65.53;96840.34;6295838;28;20400;-62
2023/06/15 06:33:16;;;;;;;4.85;3.38;;;;;;;16.89;65.43;96846.50;6292064;28;20033;-63
2023/06/15 06:36:20;;;;;;;5.55;2.97;;;;;;;16.77;66.07;96849.28;6295563;28;20045;-62
2023/06/15 06:39:26;;;;;;;4.32;2.80;;;;;;;16.78;66.65;96852.75;6294002;28;20048;-62
2023/06/15 06:42:32;;;;;;;4.50;2.95;;;;;;;16.73;66.75;96862.94;6269607;28;20041;-63
2023/06/15 06:45:38;;;;;;;5.68;3.13;;;;;;;16.65;67.02;96860.16;6270438;28;20052;-62
2023/06/15 06:48:41;;;;;;;7.18;3.03;;;;;;;16.45;67.96;96865.41;6270591;28;20040;-62
2023/06/15 06:51:43;;;;;;;4.15;2.78;;;;;;;16.28;68.94;96855.47;6270533;28;20041;-62
2023/06/15 06:54:51;;;;;;;5.80;3.85;;;;;;;16.18;69.86;96858.06;6292738;28;20135;-62
2023/06/15 06:58:00;;;;;;;4.57;3.50;;;;;;;16.06;71.03;96848.53;6295042;28;20557;-63
2023/06/15 07:01:04;;;;;;;5.47;3.20;;;;;;;15.98;71.98;96840.38;6288362;28;20623;-64
2023/06/15 07:04:09;;;;;;;8.20;3.67;;;;;;;15.92;72.28;96841.75;6290941;28;20032;-62
2023/06/15 07:07:12;;;;;;;5.00;3.47;;;;;;;15.97;73.09;96852.00;6294679;28;20044;-62
2023/06/15 07:10:19;;;;;;;8.27;3.50;;;;;;;16.11;73.61;96831.22;6287057;28;20032;-61
2023/06/15 07:13:21;;;;;;;4.93;3.67;;;;;;;16.31;72.51;96836.59;6289133;28;20430;-61
2023/06/15 07:16:22;;;;;;;4.80;3.10;;;;;;;16.24;72.22;96835.44;6293587;28;20036;-61
2023/06/15 07:19:26;;;;;;;4.82;3.75;;;;;;;16.30;73.05;96842.88;6288628;28;20131;-63
2023/06/15 07:22:27;;;;;;;7.43;4.18;;;;;;;16.40;73.58;96838.44;6290012;28;20431;-60
2023/06/15 07:25:29;;;;;;;4.68;3.13;;;;;;;16.39;73.50;96837.59;6293915;28;20028;-62
2023/06/15 07:28:32;;;;;;;;;;;;;;;16.32;72.57;96848.88;6288019;28;20044;-62
2023/06/15 07:31:36;;;;;;;5.63;3.22;;;;;;;16.26;73.14;96860.06;6270408;28;20061;-62
2023/06/15 07:34:40;;;;;;;6.80;3.92;;;;;;;16.29;73.68;96851.81;6291088;28;20047;-62
2023/06/15 07:37:44;;;;;;;8.25;3.83;;;;;;;16.34;74.09;96853.09;6292013;28;20052;-62
2023/06/15 07:40:48;;;;;;;6.18;3.80;;;;;;;16.41;74.52;96847.22;6293829;28;20059;-61
2023/06/15 07:43:51;;;;;;;;;;;;;;;16.30;74.33;96845.50;6293275;28;20053;-62
2023/06/15 07:46:52;;;;;;;5.55;3.80;;;;;;;16.22;74.75;96842.69;6291956;28;19928;-60
2023/06/15 07:49:53;;;;;;;8.82;6.30;;;;;;;16.06;75.39;96822.81;6293215;28;20044;-61
2023/06/15 07:52:57;;;;;;;18.95;8.40;;;;;;;15.97;76.03;96823.63;6292373;28;20147;-61
2023/06/15 07:55:59;;;;;;;10.43;8.05;;;;;;;15.87;76.33;96825.41;6293117;28;20049;-61
2023/06/15 07:59:00;;;;;;;7.00;5.90;;;;;;;15.83;76.38;96831.97;6292821;28;20052;-61
2023/06/15 08:02:02;;;;;;;6.18;4.82;;;;;;;15.70;76.66;96827.69;6285080;28;20044;-61
2023/06/15 08:05:07;;;;;;;8.02;5.35;;;;;;;15.67;77.17;96822.63;6290325;28;20045;-61
2023/06/15 08:08:13;;;;;;;5.70;4.40;;;;;;;15.62;77.51;96803.59;6289313;28;20036;-61
2023/06/15 08:11:16;;;;;;;8.00;5.32;;;;;;;15.75;77.74;96797.28;6268553;28;20650;-61
2023/06/15 08:14:21;;;;;;;18.02;11.27;;;;;;;15.79;77.97;96810.13;6268768;28;20062;-62
2023/06/15 08:17:26;;;;;;;17.50;9.70;;;;;;;15.87;78.36;96806.81;6272083;28;20119;-61
2023/06/15 08:20:32;;;;;;;10.98;7.75;;;;;;;16.05;78.52;96804.38;6281139;28;20045;-62
2023/06/15 08:23:36;;;;;;;8.75;6.05;;;;;;;16.30;78.39;96821.63;6292020;28;20036;-62
2023/06/15 08:26:40;;;;;;;8.00;4.47;;;;;;;16.41;77.95;96816.19;6290790;28;20562;-62
2023/06/15 08:29:44;;;;;;;7.30;4.43;;;;;;;16.38;77.68;96821.78;6273855;28;20049;-62
2023/06/15 08:32:45;;;;;;;6.95;3.83;;;;;;;16.39;77.03;96810.19;6272296;28;20060;-62
2023/06/15 08:35:49;;;;;;;8.35;3.97;;;;;;;16.53;77.48;96804.50;6292338;28;20059;-61
2023/06/15 08:38:54;;;;;;;4.55;3.40;;;;;;;16.74;77.02;96811.50;6286926;28;20040;-66
2023/06/15 08:41:58;;;;;;;8.15;3.83;;;;;;;16.91;76.46;96816.13;6287181;28;20037;-60
2023/06/15 08:45:04;;;;;;;6.13;4.15;;;;;;;17.14;76.18;96814.03;6288691;28;20075;-67
2023/06/15 08:48:14;;;;;;;7.00;3.60;;;;;;;17.36;75.42;96791.59;6283519;28;20412;-61
2023/06/15 08:51:17;;;;;;;4.85;3.60;;;;;;;17.57;74.69;96798.53;6290221;28;20509;-61
2023/06/15 08:54:21;;;;;;;5.30;3.80;;;;;;;17.85;74.56;96797.63;6291602;28;20048;-59
2023/06/15 08:57:27;;;;;;;6.03;3.80;;;;;;;18.15;73.70;96801.81;6284106;28;20036;-68
2023/06/15 09:00:31;;;;;;;5.20;3.97;;;;;;;18.27;72.79;96802.47;6283487;28;20045;-68
2023/06/15 09:03:38;;;;;;;6.40;3.83;;;;;;;18.39;72.78;96805.75;6285056;28;20036;-68
2023/06/15 09:06:42;;;;;;;6.47;3.65;;;;;;;18.47;71.99;96791.69;6289414;28;20041;-66
2023/06/15 09:10:13;;;;;;;5.47;3.67;;;;;;;18.58;70.50;96791.47;6288704;28;20033;-62
2023/06/15 09:13:16;;;;;;;3.55;3.10;;;;;;;18.58;69.20;96781.63;6289240;28;20519;-61
2023/06/15 09:16:21;;;;;;;6.60;3.47;;;;;;;18.56;68.53;96767.63;6288757;28;20043;-62
2023/06/15 09:19:26;;;;;;;5.15;3.58;;;;;;;18.74;67.83;96783.66;6290028;28;20044;-62
2023/06/15 09:22:29;;;;;;;4.57;3.58;;;;;;;18.84;67.47;96784.41;6291672;28;20041;-62
2023/06/15 09:25:36;;;;;;;5.75;3.40;;;;;;;18.88;67.13;96792.09;6293141;28;20036;-61
2023/06/15 09:28:44;;;;;;;5.55;3.47;;;;;;;18.99;67.02;96789.19;6281283;28;20514;-61
2023/06/15 09:31:49;;;;;;;6.07;3.30;;;;;;;19.12;65.54;96780.81;6279937;28;20499;-61
2023/06/15 09:35:00;;;;;;;4.63;3.28;;;;;;;19.10;65.52;96778.28;6281570;28;20087;-62
2023/06/15 09:38:02;;;;;;;5.07;3.00;;;;;;;19.24;65.18;96790.22;6291000;28;20052;-62
2023/06/15 09:41:03;;;;;;;3.88;3.10;;;;;;;19.34;64.33;96782.16;6288562;28;20044;-62
2023/06/15 09:44:09;;;;;;;3.95;3.03;;;;;;;19.57;63.33;96780.63;6290552;28;20060;-62
2023/06/15 09:47:17;;;;;;;4.47;2.67;;;;;;;19.79;62.71;96783.75;6286979;28;20051;-63
2023/06/15 09:50:26;;;;;;;4.38;2.90;;;;;;;19.88;62.25;96770.31;6278938;28;20071;-61
2023/06/15 09:53:30;;;;;;;4.10;3.33;;;;;;;20.12;61.80;96780.22;6288077;28;20408;-62
2023/06/15 09:56:36;;;;;;;4.82;2.90;;;;;;;20.56;59.73;96779.25;6292481;28;20048;-62
2023/06/15 09:59:38;;;;;;;3.90;2.85;;;;;;;21.10;58.09;96782.28;6292236;28;20049;-61
2023/06/15 10:02:47;;;;;;;4.07;2.92;;;;;;;21.48;56.76;96778.09;6290194;28;20048;-62
2023/06/15 10:05:54;;;;;;;4.80;2.80;;;;;;;21.95;55.82;96773.78;6290435;28;20131;-61
2023/06/15 10:09:00;;;;;;;6.18;3.00;;;;;;;22.41;55.07;96780.13;6287857;28;20045;-62
2023/06/15 10:12:09;;;;;;;3.95;2.65;;;;;;;22.73;54.59;96772.94;6273033;28;20056;-63
2023/06/15 10:15:20;;;;;;;5.55;3.97;;;;;;;23.07;53.87;96769.84;6293403;28;20060;-64
2023/06/15 10:18:29;;;;;;;5.82;2.90;;;;;;;24.15;50.63;96767.75;6296384;28;20066;-62
2023/06/15 10:21:34;;;;;;;4.63;3.10;;;;;;;26.25;46.26;96759.28;6296415;28;20063;-60
2023/06/15 10:24:39;;;;;;;3.78;2.15;;;;;;;27.53;43.10;96768.28;6294726;28;20048;-62
2023/06/15 10:27:44;;;;;;;3.80;2.22;;;;;;;27.52;41.87;96766.63;6295767;28;20423;-61
2023/06/15 10:31:24;;;;;;;3.42;2.40;;;;;;;27.23;42.29;96768.72;6295941;28;20044;-62
2023/06/15 10:34:42;;;;;;;4.88;2.42;;;;;;;26.58;43.27;96751.31;6296012;28;20059;-62
2023/06/15 10:37:48;;;;;;;6.15;2.70;;;;;;;25.90;44.57;96757.47;6290520;28;20041;-61
2023/06/15 10:40:52;;;;;;;3.08;2.53;;;;;;;25.90;44.62;96757.47;6288117;28;20048;-61
2023/06/15 10:44:04;;;;;;;2.85;2.20;;;;;;;27.34;42.75;96764.53;6271745;28;20099;-62
2023/06/15 10:47:19;;;;;;;2.47;2.10;;;;;;;29.52;38.49;96759.28;6291814;28;20057;-62
2023/06/15 10:50:24;;;;;;;3.70;2.08;;;;;;;31.05;36.27;96749.38;6294810;28;20044;-62
2023/06/15 10:53:27;;;;;;;2.47;1.98;;;;;;;32.25;34.14;96762.88;6295658;28;20055;-62
2023/06/15 10:56:31;;;;;;;1.95;1.67;;;;;;;32.34;33.03;96753.25;6291783;28;20037;-61
2023/06/15 10:59:39;;;;;;;2.42;2.20;;;;;;;31.57;34.06;96745.28;6289640;28;20587;-61
2023/06/15 11:02:50;;;;;;;4.35;2.42;;;;;;;31.93;33.90;96755.94;6289128;28;20041;-63
2023/06/15 11:06:13;;;;;;;3.30;2.40;;;;;;;32.07;33.01;96751.03;6286552;28;20048;-62
2023/06/15 11:09:24;;;;;;;3.92;2.72;;;;;;;31.79;33.70;96748.19;6295096;28;20040;-63
2023/06/15 11:12:40;;;;;;;3.67;3.00;;;;;;;31.74;33.91;96751.66;6292315;28;20099;-61
2023/06/15 11:16:07;;;;;;;4.72;3.13;;;;;;;30.58;36.10;96748.38;6292111;28;20167;-61
2023/06/15 11:19:14;;;;;;;3.55;3.17;;;;;;;29.39;37.84;96745.03;6287865;28;20555;-61
2023/06/15 11:22:28;;;;;;;8.18;4.57;;;;;;;28.08;39.63;96741.81;6286912;28;20032;-62
2023/06/15 11:25:37;;;;;;;3.80;3.08;;;;;;;26.83;41.25;96747.00;6284397;28;20040;-61
2023/06/15 11:28:41;;;;;;;3.40;2.45;;;;;;;26.23;42.52;96745.16;6283526;28;20427;-68
2023/06/15 11:31:46;;;;;;;3.83;2.42;;;;;;;25.83;42.90;96734.19;6267765;28;20435;-68
2023/06/15 11:35:00;;;;;;;4.07;2.60;;;;;;;25.82;43.25;96751.34;6288890;28;20040;-67
2023/06/15 11:38:08;;;;;;;4.32;2.50;;;;;;;25.80;43.70;96751.56;6285109;28;20040;-61
2023/06/15 11:41:15;;;;;;;8.25;5.15;;;;;;;25.77;43.64;96741.16;6284969;28;20514;-64
2023/06/15 11:44:18;;;;;;;2.97;2.22;;;;;;;25.61;43.71;96742.31;6285657;28;20479;-65
2023/06/15 11:47:24;;;;;;;3.03;2.10;;;;;;;25.34;44.22;96741.31;6293738;28;20522;-63
2023/06/15 11:50:28;;;;;;;5.68;3.15;;;;;;;25.41;44.14;96731.38;6293716;28;20033;-65
2023/06/15 11:53:33;;;;;;;4.07;2.40;;;;;;;25.76;43.43;96728.72;6292930;28;20125;-66
2023/06/15 11:56:46;;;;;;;3.22;2.70;;;;;;;25.74;44.40;96730.78;6285594;28;20036;-62
2023/06/15 11:59:52;;;;;;;6.13;2.70;;;;;;;25.56;43.67;96727.75;6288651;28;20041;-62
2023/06/15 12:02:56;;;;;;;3.58;2.35;;;;;;;25.59;43.44;96730.91;6282502;28;20040;-63
2023/06/15 12:06:00;;;;;;;2.22;2.03;;;;;;;25.49;43.61;96733.94;6281308;28;20067;-62
2023/06/15 12:09:03;;;;;;;4.88;2.38;;;;;;;25.46;44.28;96731.63;6280110;28;20048;-64
2023/06/15 12:12:07;;;;;;;3.25;2.50;;;;;;;25.52;43.63;96711.16;6279468;28;20109;-63
2023/06/15 12:15:09;;;;;;;5.65;2.50;;;;;;;25.40;44.57;96715.44;6280543;28;20147;-63
2023/06/15 12:18:19;;;;;;;8.57;6.43;;;;;;;25.35;44.76;96710.63;6284260;28;20503;-62
2023/06/15 12:21:20;;;;;;;5.03;2.63;;;;;;;25.26;44.89;96701.88;6288754;28;20078;-62
2023/06/15 12:24:26;;;;;;;7.82;2.92;;;;;;;25.00;45.22;96702.47;6282918;28;20029;-62
2023/06/15 12:27:40;;;;;;;5.80;2.88;;;;;;;24.80;46.04;96701.47;6284544;28;20056;-62
2023/06/15 12:30:44;;;;;;;4.70;2.67;;;;;;;24.79;45.45;96710.56;6287286;28;20037;-62
2023/06/15 12:33:50;;;;;;;4.93;2.78;;;;;;;24.72;45.23;96698.91;6284161;28;20040;-61
2023/06/15 12:36:57;;;;;;;4.00;2.17;;;;;;;24.75;45.42;96687.75;6283966;28;20041;-62
2023/06/15 12:39:58;;;;;;;3.22;2.28;;;;;;;24.92;44.86;96696.41;6283887;28;20072;-62
2023/06/15 12:43:04;;;;;;;2.85;2.38;;;;;;;25.08;44.43;96688.88;6290159;28;20045;-62
2023/06/15 12:46:09;;;;;;;2.63;2.42;;;;;;;25.19;44.28;96681.31;6286076;28;20036;-61
2023/06/15 12:49:12;;;;;;;6.40;3.05;;;;;;;25.27;43.78;96670.38;6284705;28;20045;-63
2023/06/15 12:52:14;;;;;;;3.45;2.85;;;;;;;25.32;42.93;96678.72;6290034;28;20044;-64
2023/06/15 12:55:18;;;;;;;3.20;2.38;;;;;;;25.04;43.46;96679.50;6289145;28;20037;-65
2023/06/15 12:58:23;;;;;;;4.10;2.70;;;;;;;24.83;43.21;96682.25;6290686;28;20043;-64
2023/06/15 13:01:30;;;;;;;4.20;2.72;;;;;;;24.68;43.80;96681.47;6292186;28;20045;-63
2023/06/15 13:04:36;;;;;;;5.70;2.55;;;;;;;24.52;44.40;96678.03;6292169;28;20048;-62
2023/06/15 13:07:38;;;;;;;5.03;2.65;;;;;;;24.50;43.79;96674.69;6283894;28;20033;-62
2023/06/15 13:10:42;;;;;;;3.72;2.55;;;;;;;24.36;44.09;96668.31;6285017;28;20055;-63
2023/06/15 13:13:46;;;;;;;20.58;12.27;;;;;;;24.35;43.61;96663.13;6289267;28;20518;-64
2023/06/15 13:16:54;;;;;;;7.00;4.80;;;;;;;24.36;43.03;96671.00;6292534;28;20040;-63
2023/06/15 13:19:58;;;;;;;4.65;2.75;;;;;;;24.34;42.57;96664.13;6285833;28;20415;-63
2023/06/15 13:23:00;;;;;;;5.47;2.90;;;;;;;24.34;42.08;96664.97;6286706;28;20728;-63
2023/06/15 13:26:08;;;;;;;4.90;2.38;;;;;;;24.46;41.90;96661.81;6285253;28;20044;-63
2023/06/15 13:29:12;;;;;;;3.53;2.20;;;;;;;24.48;41.52;96659.75;6282157;28;20044;-63
2023/06/15 13:32:19;;;;;;;2.72;2.20;;;;;;;24.36;41.58;96656.72;6282779;28;20231;-63
2023/06/15 13:35:23;;;;;;;6.20;2.47;;;;;;;24.37;41.31;96653.00;6286326;28;20036;-62
2023/06/15 13:38:30;;;;;;;5.45;2.50;;;;;;;24.46;40.54;96651.91;6285112;28;20036;-64
2023/06/15 13:41:34;;;;;;;5.30;2.30;;;;;;;24.49;40.32;96651.50;6282154;28;20052;-63
2023/06/15 13:44:35;;;;;;;2.08;1.90;;;;;;;24.48;40.42;96649.84;6283500;28;20052;-62
2023/06/15 13:47:40;;;;;;;2.88;1.92;;;;;;;24.53;40.03;96657.34;6284800;28;20048;-62
2023/06/15 13:50:42;;;;;;;3.90;2.30;;;;;;;24.37;40.38;96653.00;6286678;28;20033;-66
2023/06/15 13:53:45;;;;;;;5.00;2.83;;;;;;;24.38;40.76;96643.94;6292336;28;20040;-63
2023/06/15 13:56:48;;;;;;;6.55;2.30;;;;;;;24.35;40.92;96638.94;6291313;28;20052;-67
2023/06/15 13:59:51;;;;;;;3.28;2.38;;;;;;;24.29;40.40;96648.59;6290697;28;20187;-67
2023/06/15 14:02:56;;;;;;;5.65;3.30;;;;;;;24.19;40.68;96635.44;6292648;28;20134;-67
2023/06/15 14:06:03;;;;;;;5.95;3.22;;;;;;;24.09;40.80;96640.31;6287849;28;20403;-66
2023/06/15 14:09:11;;;;;;;6.97;3.03;;;;;;;24.10;40.74;96635.78;6290249;28;20040;-67
2023/06/15 14:12:18;;;;;;;6.57;3.53;;;;;;;24.10;40.85;96631.22;6289873;28;20048;-66
2023/06/15 14:15:24;;;;;;;6.60;4.32;;;;;;;24.26;38.98;96624.78;6287110;28;20128;-66
2023/06/15 14:18:25;;;;;;;5.95;2.97;;;;;;;24.04;38.78;96626.63;6287203;28;20669;-67
2023/06/15 14:21:27;;;;;;;5.45;2.90;;;;;;;23.67;39.29;96625.75;6286737;28;20547;-67
2023/06/15 14:24:30;;;;;;;4.82;2.92;;;;;;;23.39;39.15;96622.06;6287744;28;20041;-67
2023/06/15 14:27:38;;;;;;;4.60;2.58;;;;;;;23.24;39.39;96614.84;6293342;28;20040;-67
2023/06/15 14:30:42;;;;;;;5.50;2.97;;;;;;;23.20;39.43;96618.91;6287857;28;20539;-66